Time;durP1;ratioP1;P1;durP2;ratioP2;P2;SDS_P1;SDS_P2;PMS_P1;PMS_P2;Temp;Humidity;BMP_temperature;BMP_pressure;BME280_temperature;BME280_humidity;BME280_pressure;Samples;Min_cycle;Max_cycle;Signal;HPM_P1;HPM_P2
2023/01/26 00:01:28;;;;;;;15.48;9.43;;;;;1.30;99093.00;;;;4934770;29;20048;-61
2023/01/26 00:03:56;;;;;;;15.70;9.70;;;;;1.30;99092.00;;;;4918080;29;20095;-64
2023/01/26 00:06:23;;;;;;;17.77;10.02;;;;;1.20;99085.00;;;;4934118;29;20098;-61
2023/01/26 00:08:52;;;;;;;15.80;9.70;;;;;1.30;99075.00;;;;4934803;29;20043;-61
2023/01/26 00:11:25;;;;;;;16.48;9.60;;;;;1.40;99079.00;;;;4917527;29;20059;-62
2023/01/26 00:13:53;;;;;;;16.13;9.98;;;;;1.40;99065.00;;;;4917955;29;20059;-61
2023/01/26 00:16:20;;;;;;;15.95;9.25;;;;;1.30;99064.00;;;;4934098;29;20040;-62
2023/01/26 00:18:46;;;;;;;15.00;9.23;;;;;1.20;99063.00;;;;4934669;29;20043;-61
2023/01/26 00:21:19;;;;;;;16.77;9.68;;;;;1.20;99052.00;;;;4934538;29;20054;-61
2023/01/26 00:23:46;;;;;;;14.77;9.43;;;;;1.20;99044.00;;;;4934318;29;20061;-61
2023/01/26 00:26:16;;;;;;;15.73;9.43;;;;;1.20;99036.00;;;;4933662;29;20043;-61
2023/01/26 00:28:43;;;;;;;14.93;9.07;;;;;1.20;99040.00;;;;4917257;29;20517;-61
2023/01/26 00:31:13;;;;;;;14.55;8.43;;;;;1.20;99038.00;;;;4917510;29;20046;-61
2023/01/26 00:33:40;;;;;;;11.18;8.23;;;;;1.10;99042.00;;;;4917470;29;20048;-61
2023/01/26 00:36:09;;;;;;;14.88;8.65;;;;;1.20;99039.00;;;;4916902;29;20052;-61
2023/01/26 00:38:36;;;;;;;11.95;8.05;;;;;1.10;99036.00;;;;4917111;29;20055;-61
2023/01/26 00:41:02;;;;;;;12.38;8.07;;;;;1.10;99035.00;;;;4917141;29;20086;-61
2023/01/26 00:43:29;;;;;;;13.95;8.43;;;;;1.30;99040.00;;;;4934279;29;20069;-61
2023/01/26 00:45:56;;;;;;;15.90;8.95;;;;;1.50;99033.00;;;;4916488;29;20130;-61
2023/01/26 00:48:22;;;;;;;15.68;9.70;;;;;1.60;99036.00;;;;4917049;29;20044;-61
2023/01/26 00:50:51;;;;;;;14.95;9.60;;;;;1.60;99032.00;;;;4934078;29;20048;-61
2023/01/26 00:53:17;;;;;;;18.58;11.25;;;;;1.70;99031.00;;;;4934128;29;20043;-61
2023/01/26 00:55:44;;;;;;;14.82;9.68;;;;;1.70;99035.00;;;;4917821;29;20044;-61
2023/01/26 00:58:11;;;;;;;18.25;10.68;;;;;1.70;99024.00;;;;4937995;29;20130;-61
2023/01/26 01:00:37;;;;;;;16.00;9.55;;;;;1.70;99028.00;;;;4937977;29;20063;-61
2023/01/26 01:03:05;;;;;;;15.75;9.93;;;;;1.60;99024.00;;;;4920548;29;20052;-61
2023/01/26 01:05:32;;;;;;;17.13;10.23;;;;;1.60;99028.00;;;;4920228;29;20054;-62
2023/01/26 01:07:59;;;;;;;18.70;10.45;;;;;1.50;99024.00;;;;4937875;29;20407;-62
2023/01/26 01:10:27;;;;;;;15.25;9.07;;;;;1.60;99022.00;;;;4938193;29;20369;-62
2023/01/26 01:12:54;;;;;;;16.10;10.10;;;;;1.60;99034.00;;;;4920975;29;20067;-62
2023/01/26 01:15:22;;;;;;;18.08;10.07;;;;;1.50;99031.00;;;;4937154;29;20047;-62
2023/01/26 01:17:49;;;;;;;18.73;11.27;;;;;1.60;99028.00;;;;4937767;29;20126;-63
2023/01/26 01:20:16;;;;;;;17.98;9.23;;;;;1.60;99037.00;;;;4937511;29;20752;-62
2023/01/26 01:22:42;;;;;;;17.17;10.02;;;;;1.50;99030.00;;;;4937551;29;20051;-63
2023/01/26 01:25:09;;;;;;;16.95;10.60;;;;;1.40;99032.00;;;;4937154;29;20044;-60
2023/01/26 01:27:36;;;;;;;19.77;11.52;;;;;1.50;99029.00;;;;4937403;29;20062;-62
2023/01/26 01:30:06;;;;;;;19.15;10.85;;;;;1.60;99036.00;;;;4920437;29;20055;-62
2023/01/26 01:32:38;;;;;;;14.73;9.68;;;;;1.40;99030.00;;;;4937256;29;20464;-61
2023/01/26 01:35:10;;;;;;;16.48;10.18;;;;;1.30;99024.00;;;;4919966;29;20461;-61
2023/01/26 01:37:47;;;;;;;16.20;10.20;;;;;1.10;99021.00;;;;4922197;29;20051;-61
2023/01/26 01:40:14;;;;;;;15.45;10.13;;;;;1.10;99027.00;;;;4937407;29;20043;-62
2023/01/26 01:42:49;;;;;;;17.40;10.45;;;;;1.10;99025.00;;;;4920430;29;20071;-62
2023/01/26 01:45:25;;;;;;;20.52;11.93;;;;;1.20;99028.00;;;;4936722;29;20539;-62
2023/01/26 01:47:55;;;;;;;14.10;8.77;;;;;1.20;99030.00;;;;4937099;29;20108;-62
2023/01/26 01:50:23;;;;;;;18.95;11.23;;;;;1.20;99030.00;;;;4937547;29;20420;-62
2023/01/26 01:52:51;;;;;;;17.08;9.80;;;;;1.30;99030.00;;;;4937819;29;20146;-62
2023/01/26 01:55:18;;;;;;;15.35;10.38;;;;;1.30;99036.00;;;;4925152;29;20055;-62
2023/01/26 01:57:52;;;;;;;17.48;10.52;;;;;1.30;99033.00;;;;4944248;29;20257;-62
2023/01/26 02:00:21;;;;;;;13.95;9.00;;;;;1.30;99034.00;;;;4938354;29;20052;-62
2023/01/26 02:10:17;;;;;;;15.55;9.18;;;;;0.90;99032.00;;;;4934873;29;20181;-62
2023/01/26 02:12:46;;;;;;;14.63;8.82;;;;;1.00;99025.00;;;;4919605;29;20059;-61
2023/01/26 02:15:13;;;;;;;16.52;9.35;;;;;1.00;99017.00;;;;4918994;29;20059;-61
2023/01/26 02:17:40;;;;;;;14.95;8.88;;;;;1.00;99013.00;;;;4936708;29;20078;-62
2023/01/26 02:20:27;;;;;;;16.88;9.77;;;;;1.10;99021.00;;;;4919271;29;20051;-63
2023/01/26 02:23:31;;;;;;;14.57;8.88;;;;;1.20;99016.00;;;;4919391;29;20051;-60
2023/01/26 02:26:02;;;;;;;14.50;8.67;;;;;1.10;99013.00;;;;4918744;29;20043;-61
2023/01/26 02:28:29;;;;;;;13.00;7.05;;;;;0.90;99011.00;;;;4919471;29;20048;-61
2023/01/26 02:30:56;;;;;;;13.27;7.57;;;;;0.80;99007.00;;;;4936611;29;20051;-61
2023/01/26 02:33:26;;;;;;;12.68;8.00;;;;;0.70;99000.00;;;;4919244;29;20099;-61
2023/01/26 02:35:58;;;;;;;14.07;8.30;;;;;0.70;99005.00;;;;4919080;29;20040;-61
2023/01/26 02:38:32;;;;;;;12.48;7.57;;;;;0.80;99002.00;;;;4919219;29;20055;-60
2023/01/26 02:41:04;;;;;;;13.75;7.35;;;;;0.90;99004.00;;;;4936093;29;20125;-61
2023/01/26 02:43:31;;;;;;;10.95;6.20;;;;;0.90;99013.00;;;;4919034;29;20048;-61
2023/01/26 02:45:58;;;;;;;15.77;7.55;;;;;0.80;99004.00;;;;4918536;29;20119;-61
2023/01/26 02:51:10;;;;;;;13.73;7.25;;;;;0.60;99001.00;;;;4936618;29;20106;-61
2023/01/26 02:53:37;;;;;;;11.13;7.43;;;;;0.60;98997.00;;;;4918811;29;20044;-61
2023/01/26 02:56:04;;;;;;;10.07;6.57;;;;;0.60;99000.00;;;;4935737;29;20044;-61
2023/01/26 02:58:31;;;;;;;10.30;5.60;;;;;0.70;98997.00;;;;4919267;29;20452;-62
2023/01/26 03:00:58;;;;;;;9.65;5.95;;;;;1.00;99001.00;;;;4919108;29;20052;-63
2023/01/26 03:03:43;;;;;;;8.90;5.32;;;;;1.10;99006.00;;;;4935957;29;20099;-63
2023/01/26 03:06:14;;;;;;;9.70;5.40;;;;;1.00;98984.00;;;;4936140;29;20039;-62
2023/01/26 03:08:48;;;;;;;8.65;5.70;;;;;1.00;98987.00;;;;4919211;29;20536;-62
2023/01/26 03:11:14;;;;;;;10.32;5.20;;;;;1.10;98982.00;;;;4918650;29;20051;-62
2023/01/26 03:13:41;;;;;;;8.02;5.55;;;;;1.20;98977.00;;;;4918524;29;20659;-62
2023/01/26 03:16:09;;;;;;;8.23;5.25;;;;;1.30;98972.00;;;;4918015;29;20043;-62
2023/01/26 03:29:45;;;;;;;7.30;5.38;;;;;1.30;98974.00;;;;4918223;29;20166;-61
2023/01/26 03:32:12;;;;;;;7.38;5.13;;;;;1.30;98971.00;;;;4918072;29;20056;-61
2023/01/26 03:34:41;;;;;;;7.55;5.13;;;;;1.30;98966.00;;;;4917656;29;20044;-61
2023/01/26 03:37:08;;;;;;;7.40;5.30;;;;;1.40;98967.00;;;;4918060;29;20043;-61
2023/01/26 03:56:31;;;;;;;8.35;5.28;;;;;1.40;98953.00;;;;4934567;29;20489;-60
2023/01/26 03:59:11;;;;;;;7.30;5.05;;;;;1.30;98941.00;;;;4918247;29;20059;-59
2023/01/26 04:10:01;;;;;;;8.50;5.43;;;;;1.40;98947.00;;;;4919791;29;20060;-62
2023/01/26 04:12:29;;;;;;;7.47;5.15;;;;;1.30;98940.00;;;;4920390;29;20075;-60
2023/01/26 04:23:23;;;;;;;7.05;5.07;;;;;1.40;98931.00;;;;4919912;29;20477;-60
2023/01/26 04:25:50;;;;;;;5.55;4.30;;;;;1.30;98929.00;;;;4918511;29;20047;-61
2023/01/26 04:28:17;;;;;;;7.82;4.97;;;;;1.20;98927.00;;;;4935795;29;20043;-60
2023/01/26 04:30:45;;;;;;;7.82;5.05;;;;;1.20;98926.00;;;;4918183;29;20163;-60
2023/01/26 04:33:12;;;;;;;7.00;5.32;;;;;1.30;98924.00;;;;4918807;29;20482;-61
2023/01/26 04:35:39;;;;;;;5.90;4.30;;;;;1.30;98917.00;;;;4934716;29;20134;-60
2023/01/26 04:38:05;;;;;;;7.45;4.30;;;;;1.40;98925.00;;;;4918120;29;20044;-62
2023/01/26 04:40:32;;;;;;;9.30;4.82;;;;;1.50;98922.00;;;;4917998;29;20579;-60
2023/01/26 04:42:59;;;;;;;6.63;4.55;;;;;1.60;98916.00;;;;4902831;29;20071;-60
2023/01/26 04:45:25;;;;;;;5.53;4.03;;;;;1.60;98914.00;;;;4935309;29;20040;-60
2023/01/26 04:47:53;;;;;;;6.18;4.10;;;;;1.70;98896.00;;;;4918223;29;20579;-58
2023/01/26 04:50:20;;;;;;;5.95;4.03;;;;;1.50;98904.00;;;;4918444;29;20130;-58
2023/01/26 04:52:46;;;;;;;6.78;4.22;;;;;1.40;98907.00;;;;4919381;29;20139;-61
2023/01/26 04:55:14;;;;;;;6.22;3.90;;;;;1.30;98903.00;;;;4917634;29;20044;-64
2023/01/26 04:57:41;;;;;;;6.65;4.82;;;;;1.30;98897.00;;;;4917787;29;20111;-59
2023/01/26 05:00:10;;;;;;;7.75;4.40;;;;;1.50;98892.00;;;;4917645;29;20055;-59
2023/01/26 05:02:39;;;;;;;6.68;4.20;;;;;1.50;98888.00;;;;4901944;29;20508;-60
2023/01/26 05:05:07;;;;;;;6.25;3.90;;;;;1.50;98887.00;;;;4917093;29;20051;-62
2023/01/26 05:07:33;;;;;;;6.35;4.13;;;;;1.50;98885.00;;;;4917717;29;20043;-62
2023/01/26 05:10:01;;;;;;;6.47;4.47;;;;;1.50;98896.00;;;;4917427;29;20044;-62
2023/01/26 05:12:48;;;;;;;6.90;4.57;;;;;1.50;98885.00;;;;4900937;29;20237;-62
2023/01/26 05:15:31;;;;;;;6.85;4.32;;;;;1.60;98894.00;;;;4917149;29;20047;-61
2023/01/26 05:18:11;;;;;;;6.72;4.32;;;;;1.60;98890.00;;;;4917792;29;20470;-60
2023/01/26 05:21:08;;;;;;;5.75;4.15;;;;;1.60;98896.00;;;;4899038;29;20442;-61
2023/01/26 05:23:39;;;;;;;5.35;3.97;;;;;1.50;98892.00;;;;4917369;29;20119;-62
2023/01/26 05:26:41;;;;;;;6.70;4.22;;;;;1.50;98898.00;;;;4910921;29;20047;-62
2023/01/26 05:29:12;;;;;;;6.20;4.30;;;;;1.40;98888.00;;;;4934479;29;20472;-62
2023/01/26 05:31:39;;;;;;;7.15;4.53;;;;;1.50;98894.00;;;;4917297;29;20158;-63
2023/01/26 05:34:07;;;;;;;8.25;5.10;;;;;1.50;98888.00;;;;4901140;29;20052;-62
2023/01/26 05:36:35;;;;;;;6.85;4.63;;;;;1.50;98885.00;;;;4917063;29;20063;-62
2023/01/26 05:39:01;;;;;;;7.90;4.88;;;;;1.50;98887.00;;;;4917485;29;20466;-63
2023/01/26 05:41:29;;;;;;;8.68;4.72;;;;;1.60;98886.00;;;;4918226;29;20066;-63
2023/01/26 05:44:16;;;;;;;9.32;4.55;;;;;1.60;98894.00;;;;4930547;29;20420;-62
2023/01/26 05:46:47;;;;;;;8.80;4.68;;;;;1.50;98901.00;;;;4921050;29;20052;-64
2023/01/26 05:49:14;;;;;;;8.48;5.03;;;;;1.50;98888.00;;;;4938237;29;20102;-61
2023/01/26 05:51:40;;;;;;;5.97;4.53;;;;;1.40;98894.00;;;;4938690;29;20059;-63
2023/01/26 05:54:07;;;;;;;6.38;4.50;;;;;1.30;98902.00;;;;4921339;29;20513;-63
2023/01/26 05:56:33;;;;;;;5.82;4.30;;;;;1.30;98898.00;;;;4920841;29;20103;-62
2023/01/26 05:59:02;;;;;;;7.00;4.47;;;;;1.30;98904.00;;;;4921217;29;20048;-62
2023/01/26 06:01:29;;;;;;;7.57;4.35;;;;;1.30;98902.00;;;;4921292;29;20062;-62
2023/01/26 06:04:00;;;;;;;5.25;3.88;;;;;1.40;98894.00;;;;4920427;29;20047;-62
2023/01/26 06:06:34;;;;;;;5.05;3.97;;;;;1.30;98897.00;;;;4920598;29;20511;-61
2023/01/26 06:09:16;;;;;;;7.00;4.70;;;;;1.30;98899.00;;;;4920372;29;20461;-62
2023/01/26 06:11:59;;;;;;;7.00;3.85;;;;;1.30;98903.00;;;;4920259;29;20104;-61
2023/01/26 06:14:45;;;;;;;5.30;3.88;;;;;1.30;98907.00;;;;4919685;29;20051;-62
2023/01/26 06:17:15;;;;;;;5.50;4.22;;;;;1.30;98904.00;;;;4920245;29;20138;-63
2023/01/26 06:19:41;;;;;;;7.13;3.92;;;;;1.30;98912.00;;;;4920114;29;20043;-62
2023/01/26 06:22:10;;;;;;;6.03;4.45;;;;;1.30;98905.00;;;;4920318;29;20110;-63
2023/01/26 06:24:39;;;;;;;6.18;4.13;;;;;1.30;98901.00;;;;4919939;29;20075;-63
2023/01/26 06:27:10;;;;;;;7.47;4.20;;;;;1.30;98913.00;;;;4920234;29;20047;-62
2023/01/26 06:29:37;;;;;;;5.60;3.95;;;;;1.30;98915.00;;;;4920356;29;20051;-60
2023/01/26 06:32:03;;;;;;;6.78;4.22;;;;;1.30;98916.00;;;;4920492;29;20043;-63
2023/01/26 06:34:31;;;;;;;5.47;4.25;;;;;1.30;98922.00;;;;4919581;29;20130;-61
2023/01/26 06:36:58;;;;;;;5.55;3.97;;;;;1.30;98917.00;;;;4919971;29;20417;-61
2023/01/26 06:39:28;;;;;;;7.22;4.45;;;;;1.30;98915.00;;;;4920433;29;20054;-63
2023/01/26 06:41:57;;;;;;;5.05;3.97;;;;;1.20;98907.00;;;;4919788;29;20047;-60
2023/01/26 06:44:23;;;;;;;6.38;4.43;;;;;1.20;98917.00;;;;4936436;29;20040;-61
2023/01/26 06:46:50;;;;;;;5.57;3.65;;;;;1.20;98914.00;;;;4920218;29;20072;-61
2023/01/26 06:49:17;;;;;;;5.85;4.50;;;;;1.20;98918.00;;;;4919716;29;20102;-62
2023/01/26 06:51:51;;;;;;;9.57;4.10;;;;;1.20;98914.00;;;;4919888;29;20075;-61
2023/01/26 06:54:19;;;;;;;6.55;4.15;;;;;1.20;98923.00;;;;4918918;29;20147;-62
2023/01/26 06:57:00;;;;;;;15.60;4.85;;;;;1.20;98916.00;;;;4919432;29;20054;-61
2023/01/26 06:59:48;;;;;;;7.20;4.13;;;;;1.20;98915.00;;;;4919580;29;20533;-61
2023/01/26 07:02:32;;;;;;;4.85;3.78;;;;;1.10;98920.00;;;;4936586;29;20048;-62
2023/01/26 07:04:58;;;;;;;6.32;4.03;;;;;1.10;98910.00;;;;4936308;29;20405;-62
2023/01/26 07:07:25;;;;;;;4.18;3.17;;;;;1.10;98915.00;;;;4919450;29;20087;-62
2023/01/26 07:09:51;;;;;;;4.53;3.38;;;;;1.00;98921.00;;;;4919535;29;20111;-62
2023/01/26 07:12:17;;;;;;;5.10;3.42;;;;;1.00;98916.00;;;;4936331;29;20568;-62
2023/01/26 07:14:44;;;;;;;4.30;3.65;;;;;1.20;98913.00;;;;4935851;29;20106;-62
2023/01/26 07:17:11;;;;;;;6.22;3.75;;;;;1.20;98914.00;;;;4936355;29;20044;-61
2023/01/26 07:19:37;;;;;;;5.65;3.80;;;;;1.00;98917.00;;;;4919091;29;20055;-62
2023/01/26 07:22:04;;;;;;;5.80;3.83;;;;;1.00;98916.00;;;;4936132;29;20051;-61
2023/01/26 07:24:30;;;;;;;6.10;4.55;;;;;1.00;98931.00;;;;4935615;29;20135;-61
2023/01/26 07:26:57;;;;;;;8.35;5.70;;;;;1.00;98932.00;;;;4936066;29;20466;-61
2023/01/26 07:29:24;;;;;;;5.60;4.00;;;;;0.90;98930.00;;;;4918904;29;20126;-63
2023/01/26 07:31:50;;;;;;;6.00;4.40;;;;;0.80;98933.00;;;;4919087;29;20538;-62
2023/01/26 07:34:17;;;;;;;4.45;3.50;;;;;0.80;98936.00;;;;4935518;29;20521;-61
2023/01/26 07:36:44;;;;;;;4.60;3.33;;;;;0.70;98933.00;;;;4935738;29;20047;-62
2023/01/26 07:39:11;;;;;;;6.65;4.47;;;;;0.60;98923.00;;;;4936068;29;20071;-61
2023/01/26 07:41:37;;;;;;;5.32;4.10;;;;;0.60;98940.00;;;;4935690;29;20044;-61
2023/01/26 07:44:22;;;;;;;5.85;4.40;;;;;0.70;98939.00;;;;4918234;29;20110;-61
2023/01/26 07:46:49;;;;;;;5.57;4.65;;;;;0.70;98947.00;;;;4935721;29;20573;-61
2023/01/26 07:49:16;;;;;;;7.68;5.00;;;;;0.70;98944.00;;;;4935434;29;20561;-61
2023/01/26 07:51:42;;;;;;;6.15;4.30;;;;;0.70;98942.00;;;;4935681;29;20047;-61
2023/01/26 07:54:10;;;;;;;4.85;3.75;;;;;0.70;98948.00;;;;4935370;29;20055;-61
2023/01/26 07:56:36;;;;;;;4.60;3.67;;;;;0.60;98941.00;;;;4935515;29;20095;-61
2023/01/26 07:59:03;;;;;;;4.78;3.65;;;;;0.60;98947.00;;;;4935542;29;20078;-61
2023/01/26 08:01:29;;;;;;;5.55;3.88;;;;;0.60;98947.00;;;;4935292;29;20103;-62
2023/01/26 08:03:56;;;;;;;6.00;4.28;;;;;0.60;98943.00;;;;4935248;29;20047;-61
2023/01/26 08:06:24;;;;;;;6.70;4.53;;;;;0.60;98946.00;;;;4934045;29;20489;-62
2023/01/26 08:08:52;;;;;;;4.70;4.13;;;;;0.60;98960.00;;;;4935343;29;20039;-62
2023/01/26 08:11:21;;;;;;;5.43;4.30;;;;;0.40;98951.00;;;;4918227;29;20051;-62
2023/01/26 08:13:48;;;;;;;5.63;4.22;;;;;0.50;98956.00;;;;4935347;29;20055;-62
2023/01/26 08:16:14;;;;;;;4.82;4.22;;;;;0.50;98963.00;;;;4935174;29;20043;-63
2023/01/26 08:18:42;;;;;;;7.30;4.88;;;;;0.50;98960.00;;;;4935925;29;20071;-62
2023/01/26 08:21:10;;;;;;;5.28;4.72;;;;;0.50;98968.00;;;;4935716;29;20060;-62
2023/01/26 08:23:37;;;;;;;5.32;4.20;;;;;0.50;98967.00;;;;4935477;29;20056;-60
2023/01/26 08:26:06;;;;;;;6.00;4.78;;;;;0.50;98959.00;;;;4934857;29;20127;-61
2023/01/26 08:28:33;;;;;;;5.72;4.50;;;;;0.40;98968.00;;;;4935463;29;20047;-61
2023/01/26 08:31:11;;;;;;;6.72;4.13;;;;;0.40;98960.00;;;;4918057;29;20460;-61
2023/01/26 08:33:40;;;;;;;5.05;4.20;;;;;0.40;98966.00;;;;4934948;29;20509;-61
2023/01/26 08:36:10;;;;;;;6.43;3.80;;;;;0.50;98966.00;;;;4934495;29;20517;-60
2023/01/26 08:38:37;;;;;;;7.32;5.43;;;;;0.40;98968.00;;;;4918337;29;20497;-61
2023/01/26 08:41:04;;;;;;;6.20;5.00;;;;;0.50;98972.00;;;;4935082;29;20051;-62
2023/01/26 08:43:30;;;;;;;6.43;4.38;;;;;0.60;98970.00;;;;4934770;29;20086;-62
2023/01/26 08:45:57;;;;;;;4.68;4.20;;;;;0.40;98965.00;;;;4934433;29;20047;-62
2023/01/26 08:48:24;;;;;;;6.03;4.47;;;;;0.40;98952.00;;;;4935025;29;20043;-63
2023/01/26 08:50:56;;;;;;;8.20;4.30;;;;;0.50;98961.00;;;;4935213;29;20051;-62
2023/01/26 08:53:23;;;;;;;5.60;4.10;;;;;0.50;98969.00;;;;4935121;29;20050;-61
2023/01/26 08:55:50;;;;;;;6.47;4.55;;;;;0.40;98972.00;;;;4934269;29;20503;-62
2023/01/26 08:58:17;;;;;;;4.97;4.07;;;;;0.40;98968.00;;;;4935017;29;20044;-62
2023/01/26 09:00:44;;;;;;;5.57;4.05;;;;;0.50;98967.00;;;;4934854;29;20072;-61
2023/01/26 09:03:10;;;;;;;6.82;4.10;;;;;0.50;98979.00;;;;4934697;29;20048;-62
2023/01/26 09:05:38;;;;;;;4.43;3.63;;;;;0.40;98980.00;;;;4934311;29;20059;-62
2023/01/26 09:08:08;;;;;;;3.47;3.17;;;;;0.40;98985.00;;;;4934695;29;20090;-63
2023/01/26 09:10:36;;;;;;;4.45;3.83;;;;;0.20;98981.00;;;;4934593;29;20599;-63
2023/01/26 09:13:03;;;;;;;4.85;3.92;;;;;0.10;98979.00;;;;4934771;29;20095;-62
2023/01/26 09:15:29;;;;;;;4.10;3.17;;;;;0.10;98980.00;;;;4934195;29;20095;-62
2023/01/26 09:17:57;;;;;;;6.82;4.30;;;;;0.20;98991.00;;;;4938071;29;20044;-62
2023/01/26 09:20:27;;;;;;;3.85;3.33;;;;;0.20;98987.00;;;;4938468;29;20051;-62
2023/01/26 09:22:53;;;;;;;3.88;3.40;;;;;0.10;98988.00;;;;4921188;29;20504;-63
2023/01/26 09:25:20;;;;;;;4.05;3.28;;;;;0.10;98994.00;;;;4938458;29;20524;-63
2023/01/26 09:27:46;;;;;;;4.35;3.22;;;;;0.20;98989.00;;;;4939330;29;20099;-61
2023/01/26 09:30:13;;;;;;;3.63;3.03;;;;;0.30;98999.00;;;;4921718;29;20114;-63
2023/01/26 09:32:40;;;;;;;4.05;3.40;;;;;0.40;98994.00;;;;4921861;29;20048;-62
2023/01/26 09:35:10;;;;;;;4.55;3.70;;;;;0.50;98990.00;;;;4937876;29;20082;-63
2023/01/26 09:37:40;;;;;;;4.15;3.25;;;;;0.60;98986.00;;;;4938685;29;20487;-63
2023/01/26 09:40:15;;;;;;;4.47;3.42;;;;;0.70;98997.00;;;;4921438;29;20279;-62
2023/01/26 09:43:19;;;;;;;3.97;3.10;;;;;0.40;98995.00;;;;4938205;29;20055;-62
2023/01/26 09:46:20;;;;;;;3.45;3.10;;;;;0.30;98988.00;;;;4920766;29;20111;-61
2023/01/26 09:49:07;;;;;;;4.00;2.97;;;;;0.40;98986.00;;;;4937988;29;20044;-61
2023/01/26 09:51:37;;;;;;;3.70;3.10;;;;;0.50;98985.00;;;;4921056;29;20083;-63
2023/01/26 09:54:04;;;;;;;13.15;5.32;;;;;0.60;98990.00;;;;4937577;29;20417;-61
2023/01/26 09:56:34;;;;;;;12.65;4.15;;;;;0.70;98985.00;;;;4937894;29;20048;-65
2023/01/26 09:59:23;;;;;;;5.75;3.78;;;;;0.80;98985.00;;;;4938791;29;20115;-63
2023/01/26 10:02:14;;;;;;;4.72;3.72;;;;;0.80;98984.00;;;;4938317;29;20102;-61
2023/01/26 10:04:44;;;;;;;7.50;4.00;;;;;0.60;98984.00;;;;4937258;29;20424;-61
2023/01/26 10:07:14;;;;;;;6.18;3.92;;;;;0.70;98971.00;;;;4938042;29;20135;-62
2023/01/26 10:09:49;;;;;;;4.57;3.30;;;;;0.80;98976.00;;;;4938089;29;20098;-61
2023/01/26 10:12:24;;;;;;;5.25;3.75;;;;;0.80;98979.00;;;;4938261;29;20047;-62
2023/01/26 10:15:05;;;;;;;7.50;4.38;;;;;0.80;98978.00;;;;4937517;29;20568;-62
2023/01/26 10:17:40;;;;;;;6.05;4.13;;;;;0.80;98984.00;;;;4921205;29;20072;-62
2023/01/26 10:20:14;;;;;;;5.07;4.20;;;;;0.90;98982.00;;;;4937911;29;20493;-62
2023/01/26 10:22:47;;;;;;;5.70;3.92;;;;;0.90;98986.00;;;;4938458;29;20062;-62
2023/01/26 10:25:23;;;;;;;5.72;3.90;;;;;0.70;98979.00;;;;4920411;29;20078;-62
2023/01/26 10:27:51;;;;;;;6.97;4.40;;;;;0.70;98987.00;;;;4936933;29;20076;-62
2023/01/26 10:30:19;;;;;;;5.22;3.90;;;;;0.70;98979.00;;;;4937691;29;20056;-61
2023/01/26 10:32:50;;;;;;;6.40;4.25;;;;;0.60;98974.00;;;;4937801;29;20058;-62
2023/01/26 10:35:22;;;;;;;7.50;4.70;;;;;0.50;98972.00;;;;4937043;29;20532;-62
2023/01/26 10:37:51;;;;;;;7.47;5.45;;;;;0.50;98969.00;;;;4920226;29;20067;-61
2023/01/26 10:40:18;;;;;;;7.88;5.30;;;;;0.60;98961.00;;;;4937537;29;20047;-61
2023/01/26 10:42:56;;;;;;;6.72;5.20;;;;;0.90;98964.00;;;;4938103;29;20047;-61
2023/01/26 10:45:31;;;;;;;8.05;5.07;;;;;0.90;98965.00;;;;4937510;29;20048;-62
2023/01/26 10:48:22;;;;;;;10.35;6.72;;;;;0.80;98959.00;;;;4938236;29;20453;-61
2023/01/26 10:50:50;;;;;;;8.07;5.82;;;;;0.70;98967.00;;;;4937889;29;20043;-62
2023/01/26 10:53:23;;;;;;;8.55;5.45;;;;;0.80;98962.00;;;;4936966;29;20103;-62
2023/01/26 10:56:02;;;;;;;9.02;5.53;;;;;0.80;98950.00;;;;4919494;29;20051;-62
2023/01/26 10:58:40;;;;;;;8.82;6.00;;;;;0.80;98949.00;;;;4937454;29;20040;-61
2023/01/26 11:01:11;;;;;;;9.35;6.10;;;;;0.70;98943.00;;;;4937414;29;20106;-61
2023/01/26 11:03:38;;;;;;;7.68;5.55;;;;;0.60;98952.00;;;;4937149;29;20106;-62
2023/01/26 11:06:14;;;;;;;8.20;6.40;;;;;0.60;98942.00;;;;4936611;29;20409;-62
2023/01/26 11:08:41;;;;;;;10.73;6.88;;;;;0.50;98945.00;;;;4920139;29;20052;-60
2023/01/26 11:11:28;;;;;;;11.65;7.93;;;;;0.50;98928.00;;;;4936941;29;20071;-61
2023/01/26 11:14:15;;;;;;;10.43;6.78;;;;;0.60;98927.00;;;;4937114;29;20102;-61
2023/01/26 11:16:48;;;;;;;11.63;7.07;;;;;0.70;98927.00;;;;4919907;29;20277;-62
2023/01/26 11:19:36;;;;;;;10.27;7.03;;;;;0.80;98922.00;;;;4919990;29;20113;-61
2023/01/26 11:22:12;;;;;;;12.23;8.50;;;;;0.90;98924.00;;;;4936849;29;20441;-62
2023/01/26 11:24:46;;;;;;;11.82;7.72;;;;;1.10;98929.00;;;;4936391;29;20568;-62
2023/01/26 11:27:35;;;;;;;13.55;7.65;;;;;1.20;98939.00;;;;4919434;29;20082;-62
2023/01/26 11:30:39;;;;;;;11.50;8.05;;;;;1.10;98926.00;;;;4936327;29;20114;-62
2023/01/26 11:33:27;;;;;;;13.57;8.38;;;;;1.30;98915.00;;;;4936081;29;20044;-62
2023/01/26 11:36:20;;;;;;;12.13;8.10;;;;;1.30;98917.00;;;;4935562;29;20486;-62
2023/01/26 11:39:15;;;;;;;10.95;7.80;;;;;1.30;98918.00;;;;4918794;29;20059;-62
2023/01/26 11:42:06;;;;;;;12.95;8.18;;;;;1.30;98909.00;;;;4917814;29;20111;-62
2023/01/26 11:44:54;;;;;;;13.55;8.10;;;;;1.20;98893.00;;;;4935410;29;20047;-61
2023/01/26 11:47:23;;;;;;;12.07;8.27;;;;;1.40;98902.00;;;;4936351;29;20063;-62
2023/01/26 11:50:01;;;;;;;12.30;8.32;;;;;1.50;98900.00;;;;4919342;29;20390;-63
2023/01/26 11:52:28;;;;;;;14.25;9.65;;;;;1.50;98898.00;;;;4936280;29;20051;-62
2023/01/26 11:55:20;;;;;;;14.15;9.55;;;;;1.60;98912.00;;;;4935472;29;20071;-62
2023/01/26 11:58:06;;;;;;;12.73;8.75;;;;;1.60;98894.00;;;;4936262;29;20048;-63
2023/01/26 12:00:40;;;;;;;13.63;8.43;;;;;1.40;98896.00;;;;4937173;29;20508;-62
2023/01/26 12:03:43;;;;;;;16.02;10.00;;;;;1.20;98896.00;;;;4940251;29;20054;-62
2023/01/26 12:06:27;;;;;;;15.80;10.18;;;;;1.20;98887.00;;;;4938573;29;20103;-61
2023/01/26 12:09:00;;;;;;;14.95;9.45;;;;;1.30;98894.00;;;;4923523;29;20059;-61
2023/01/26 12:11:37;;;;;;;14.02;9.63;;;;;1.30;98890.00;;;;4940712;29;20055;-61
2023/01/26 12:14:12;;;;;;;17.52;10.90;;;;;1.30;98883.00;;;;4923710;29;20055;-63
2023/01/26 12:16:42;;;;;;;16.70;10.43;;;;;1.40;98872.00;;;;4940044;29;20051;-62
2023/01/26 12:19:33;;;;;;;16.67;11.35;;;;;1.50;98888.00;;;;4938577;29;20098;-62
2023/01/26 12:22:09;;;;;;;17.40;11.32;;;;;1.30;98883.00;;;;4939021;29;20412;-61
2023/01/26 12:24:42;;;;;;;16.67;10.60;;;;;1.20;98866.00;;;;4938153;29;20047;-61
2023/01/26 12:27:36;;;;;;;19.00;11.70;;;;;1.10;98861.00;;;;4939195;29;20075;-61
2023/01/26 12:30:22;;;;;;;18.45;11.57;;;;;1.20;98857.00;;;;4937229;29;20517;-61
2023/01/26 12:32:50;;;;;;;20.05;12.20;;;;;1.30;98861.00;;;;4935207;29;20063;-60
2023/01/26 12:35:48;;;;;;;17.92;10.57;;;;;1.30;98851.00;;;;4934538;29;20043;-61
2023/01/26 12:38:18;;;;;;;18.20;11.05;;;;;1.20;98855.00;;;;4935314;29;20052;-61
2023/01/26 12:40:51;;;;;;;18.90;10.73;;;;;1.10;98849.00;;;;4918298;29;20075;-61
2023/01/26 12:43:43;;;;;;;18.90;10.98;;;;;0.90;98851.00;;;;4934930;29;20111;-61
2023/01/26 12:46:12;;;;;;;17.17;10.68;;;;;0.80;98845.00;;;;4934413;29;20051;-60
2023/01/26 12:48:47;;;;;;;15.65;10.15;;;;;0.70;98835.00;;;;4934852;29;20048;-62
2023/01/26 12:51:28;;;;;;;19.58;11.05;;;;;0.90;98840.00;;;;4934835;29;20043;-61
2023/01/26 12:54:15;;;;;;;18.75;11.00;;;;;0.90;98847.00;;;;4935133;29;20079;-62
2023/01/26 12:56:46;;;;;;;19.50;10.95;;;;;1.00;98842.00;;;;4935459;29;20107;-61
2023/01/26 12:59:23;;;;;;;17.65;10.45;;;;;1.10;98837.00;;;;4919349;29;20044;-62
2023/01/26 13:02:26;;;;;;;16.20;10.13;;;;;1.10;98842.00;;;;4934518;29;20134;-63
2023/01/26 13:04:54;;;;;;;17.13;10.38;;;;;1.20;98842.00;;;;4934456;29;20079;-62
2023/01/26 13:07:33;;;;;;;18.65;10.63;;;;;1.30;98836.00;;;;4935062;29;20103;-63
2023/01/26 13:10:16;;;;;;;16.00;10.35;;;;;1.40;98837.00;;;;4934954;29;20091;-62
2023/01/26 13:12:57;;;;;;;19.15;11.15;;;;;1.40;98844.00;;;;4918458;29;20047;-62
2023/01/26 13:15:27;;;;;;;17.33;10.38;;;;;1.50;98834.00;;;;4919005;29;20522;-63
2023/01/26 13:17:55;;;;;;;20.52;10.90;;;;;1.50;98844.00;;;;4934692;29;20052;-61
2023/01/26 13:20:23;;;;;;;16.75;10.75;;;;;1.50;98842.00;;;;4935342;29;20449;-63
2023/01/26 13:22:53;;;;;;;17.85;10.48;;;;;1.40;98841.00;;;;4935749;29;20103;-63
2023/01/26 13:25:31;;;;;;;18.20;11.40;;;;;1.20;98832.00;;;;4934672;29;20046;-63
2023/01/26 13:28:02;;;;;;;21.88;11.60;;;;;1.30;98843.00;;;;4917604;29;20509;-63
2023/01/26 13:30:43;;;;;;;17.52;10.90;;;;;1.40;98842.00;;;;4935283;29;20078;-63
2023/01/26 13:33:12;;;;;;;21.05;11.93;;;;;1.20;98840.00;;;;4934898;29;20424;-62
2023/01/26 13:35:39;;;;;;;21.73;12.85;;;;;1.20;98851.00;;;;4934156;29;20099;-62
2023/01/26 13:38:32;;;;;;;19.85;12.18;;;;;1.20;98836.00;;;;4934596;29;20047;-62
2023/01/26 13:40:59;;;;;;;19.83;11.63;;;;;1.20;98841.00;;;;4934373;29;20055;-62